Time,TemperatureF,DewpointF,PressureIn,WindDirection,WindDirectionDegrees,WindSpeedMPH,WindSpeedGustMPH,Humidity,HourlyPrecipIn,Conditions,Clouds,dailyrainin,SoftwareType,DateUTC
2013-08-14 06:21:00,57.0,39.0,-100.00,West,270,4.0,5.0,51,-99.99,,,-99.99,,2013-08-14 13:21:00,
2013-08-14 09:25:00,62.0,41.0,-100.00,West,270,4.0,6.0,46,-99.99,,,-99.99,,2013-08-14 16:25:00,
2013-08-14 10:28:00,66.0,41.0,-100.00,West,270,4.0,9.0,41,-99.99,,,-99.99,,2013-08-14 17:28:00,
2013-08-14 11:56:00,-999.0,-99.9,-100.00,West,270,4.0,12.0,-999,-99.99,,,-99.99,,2013-08-14 18:56:00,
2013-08-14 12:22:00,71.0,41.0,-100.00,West,270,6.0,15.0,34,-99.99,,,-99.99,,2013-08-14 19:22:00,
2013-08-14 14:23:00,73.0,34.0,-100.00,West,270,9.0,17.0,24,-99.99,,,-99.99,,2013-08-14 21:23:00,
2013-08-14 15:23:00,75.0,36.0,-100.00,West,270,7.0,16.0,24,-99.99,,,-99.99,,2013-08-14 22:23:00,
2013-08-14 16:46:00,74.0,39.0,-100.00,West,270,9.0,14.0,28,-99.99,,,-99.99,,2013-08-14 23:46:00,
2013-08-14 16:56:00,75.0,44.0,-100.00,West,270,8.0,12.0,33,-99.99,,,-99.99,,2013-08-14 23:56:00,
2013-08-14 17:12:00,74.0,43.0,-100.00,West,270,9.0,13.0,32,-99.99,,,-99.99,,2013-08-15 00:12:00,
2013-08-14 17:23:00,73.0,43.0,-100.00,West,270,9.0,16.0,34,-99.99,,,-99.99,,2013-08-15 00:23:00,
2013-08-14 17:43:00,73.0,45.0,-100.00,West,270,6.0,12.0,36,-99.99,,,-99.99,,2013-08-15 00:43:00,
2013-08-14 18:42:00,72.0,41.0,-100.00,NW,315,6.0,15.0,33,-99.99,,,-99.99,,2013-08-15 01:42:00,
2013-08-14 19:11:00,71.0,44.0,-100.00,West,270,6.0,10.0,38,-99.99,,,-99.99,,2013-08-15 02:11:00,
2013-08-14 20:43:00,64.0,43.0,-100.00,West,270,3.0,4.0,47,-99.99,,,-99.99,,2013-08-15 03:43:00,
2013-08-14 21:43:00,63.0,39.0,-100.00,SE,135,2.0,6.0,40,-99.99,,,-99.99,,2013-08-15 04:43:00,
2013-08-14 22:12:00,63.0,38.0,-100.00,SW,225,0.0,4.0,39,-99.99,,,-99.99,,2013-08-15 05:12:00,
2013-08-14 22:42:00,63.0,40.0,-100.00,SE,135,1.0,3.0,43,-99.99,,,-99.99,,2013-08-15 05:42:00,
2013-08-14 23:11:00,59.0,44.0,-100.00,East,90,3.0,4.0,56,-99.99,,,-99.99,,2013-08-15 06:11:00,
2013-08-14 23:21:00,59.0,44.0,-100.00,NE,45,2.0,4.0,59,-99.99,,,-99.99,,2013-08-15 06:21:00,
2013-08-14 23:42:00,59.0,45.0,-100.00,North,0,1.0,3.0,60,-99.99,,,-99.99,,2013-08-15 06:42:00,
2013-08-14 23:52:00,60.0,46.0,-100.00,East,90,2.0,4.0,60,-99.99,,,-99.99,,2013-08-15 06:52:00,